Tyre, New York
Current Conditions -  °F | °C
As of 2:53 AM on Friday 19 Dec 2014 (Local Time) from KPEO Reporting Station
Light Snow Light Snow  
Wind Chill: -6°   Ceiling: 1400
Heat Index: -2°   Visibility: 5mi
Dew Point: -5°   Wind: 7mph
Humidity: 81%   Direction: NA
Pressure: 30.04"   Gusts: 17mph
Location:  42.9691°N, 76.7961°W
Report Text: KPEO 190753Z AUTO VRB06G15KT 5SM -SN OVC014 M02/M05 A3004 RMK AO2 SNB39 SLP184 P0000 T10221050
Loading
Personal Weather Stations






























Interactive Weather Map New forecast layout! Learn more

10-Day Weather Forecast

Advertisements
Track Severe Weather on mobile